sensor_id;sensor_type;location;lat;lon;timestamp;pressure;altitude;pressure_sealevel;temperature;humidity
46045;BME280;31781;54.094;13.428;2023-02-03T00:01:17;101922.28;;;1.87;72.17
46045;BME280;31781;54.094;13.428;2023-02-03T00:03:20;101930.31;;;1.87;72.29
46045;BME280;31781;54.094;13.428;2023-02-03T00:05:22;101939.22;;;1.88;72.04
46045;BME280;31781;54.094;13.428;2023-02-03T00:07:24;101959.69;;;1.89;71.58
46045;BME280;31781;54.094;13.428;2023-02-03T00:09:26;101966.78;;;1.90;72.04
46045;BME280;31781;54.094;13.428;2023-02-03T00:11:29;101942.63;;;1.90;72.23
46045;BME280;31781;54.094;13.428;2023-02-03T00:13:31;101931.78;;;1.91;71.88
46045;BME280;31781;54.094;13.428;2023-02-03T00:15:35;101921.75;;;1.93;71.85
46045;BME280;31781;54.094;13.428;2023-02-03T00:17:37;101919.06;;;1.93;72.05
46045;BME280;31781;54.094;13.428;2023-02-03T00:19:39;101918.09;;;1.94;72.20
46045;BME280;31781;54.094;13.428;2023-02-03T00:21:41;101916.28;;;1.95;72.17
46045;BME280;31781;54.094;13.428;2023-02-03T00:23:43;101904.44;;;1.98;71.95
46045;BME280;31781;54.094;13.428;2023-02-03T00:25:45;101908.09;;;1.96;71.84
46045;BME280;31781;54.094;13.428;2023-02-03T00:27:46;101893.59;;;1.99;72.11
46045;BME280;31781;54.094;13.428;2023-02-03T00:29:48;101879.31;;;1.99;72.23
46045;BME280;31781;54.094;13.428;2023-02-03T00:31:52;101880.88;;;2.01;72.38
46045;BME280;31781;54.094;13.428;2023-02-03T00:33:55;101870.88;;;2.03;71.89
46045;BME280;31781;54.094;13.428;2023-02-03T00:35:57;101867.19;;;2.04;71.76
46045;BME280;31781;54.094;13.428;2023-02-03T00:37:59;101869.75;;;2.06;72.15
46045;BME280;31781;54.094;13.428;2023-02-03T00:40:01;101872.31;;;2.07;71.94
46045;BME280;31781;54.094;13.428;2023-02-03T00:42:04;101864.13;;;2.09;72.19
46045;BME280;31781;54.094;13.428;2023-02-03T00:44:06;101853.28;;;2.10;71.73
46045;BME280;31781;54.094;13.428;2023-02-03T00:46:07;101852.28;;;2.11;71.67
46045;BME280;31781;54.094;13.428;2023-02-03T00:48:11;101845.94;;;2.12;72.14
46045;BME280;31781;54.094;13.428;2023-02-03T00:50:13;101845.69;;;2.15;72.70
46045;BME280;31781;54.094;13.428;2023-02-03T00:52:14;101837.63;;;2.15;72.33
46045;BME280;31781;54.094;13.428;2023-02-03T00:54:16;101833.97;;;2.16;72.22
46045;BME280;31781;54.094;13.428;2023-02-03T00:56:18;101832.13;;;2.17;72.73
46045;BME280;31781;54.094;13.428;2023-02-03T00:58:20;101832.84;;;2.19;72.19
46045;BME280;31781;54.094;13.428;2023-02-03T01:00:22;101833.72;;;2.19;72.44
46045;BME280;31781;54.094;13.428;2023-02-03T01:02:24;101837.25;;;2.20;72.90
46045;BME280;31781;54.094;13.428;2023-02-03T01:04:27;101826.25;;;2.23;72.46
46045;BME280;31781;54.094;13.428;2023-02-03T01:06:29;101832.75;;;2.20;72.92
46045;BME280;31781;54.094;13.428;2023-02-03T01:08:31;101829.78;;;2.23;73.07
46045;BME280;31781;54.094;13.428;2023-02-03T01:10:32;101825.16;;;2.25;73.51
46045;BME280;31781;54.094;13.428;2023-02-03T01:12:34;101816.09;;;2.26;74.01
46045;BME280;31781;54.094;13.428;2023-02-03T01:14:36;101803.41;;;2.28;73.94
46045;BME280;31781;54.094;13.428;2023-02-03T01:16:38;101800.56;;;2.30;73.89
46045;BME280;31781;54.094;13.428;2023-02-03T01:18:40;101796.91;;;2.31;74.18
46045;BME280;31781;54.094;13.428;2023-02-03T01:20:43;101798.63;;;2.32;74.42
46045;BME280;31781;54.094;13.428;2023-02-03T01:22:45;101794.94;;;2.33;74.27
46045;BME280;31781;54.094;13.428;2023-02-03T01:24:46;101786.75;;;2.34;75.02
46045;BME280;31781;54.094;13.428;2023-02-03T01:26:48;101778.59;;;2.36;74.51
46045;BME280;31781;54.094;13.428;2023-02-03T01:28:51;101767.69;;;2.37;74.59
46045;BME280;31781;54.094;13.428;2023-02-03T01:30:53;101764.03;;;2.38;75.04
46045;BME280;31781;54.094;13.428;2023-02-03T01:32:55;101756.84;;;2.39;75.30
46045;BME280;31781;54.094;13.428;2023-02-03T01:34:56;101747.81;;;2.40;75.43
46045;BME280;31781;54.094;13.428;2023-02-03T01:37:00;101744.97;;;2.41;75.50
46045;BME280;31781;54.094;13.428;2023-02-03T01:39:02;101744.00;;;2.42;75.01
46045;BME280;31781;54.094;13.428;2023-02-03T01:41:06;101726.91;;;2.43;75.29
46045;BME280;31781;54.094;13.428;2023-02-03T01:43:08;101716.16;;;2.43;75.10
46045;BME280;31781;54.094;13.428;2023-02-03T01:45:10;101718.69;;;2.45;75.66
46045;BME280;31781;54.094;13.428;2023-02-03T01:47:19;101722.25;;;2.45;76.10
46045;BME280;31781;54.094;13.428;2023-02-03T01:49:25;101706.00;;;2.47;75.83
46045;BME280;31781;54.094;13.428;2023-02-03T01:51:28;101704.03;;;2.49;76.48
46045;BME280;31781;54.094;13.428;2023-02-03T01:53:32;101696.81;;;2.50;76.32
46045;BME280;31781;54.094;13.428;2023-02-03T01:55:37;101694.13;;;2.50;76.30
46045;BME280;31781;54.094;13.428;2023-02-03T01:57:44;101681.69;;;2.49;76.25
46045;BME280;31781;54.094;13.428;2023-02-03T01:59:48;101684.25;;;2.50;75.94
46045;BME280;31781;54.094;13.428;2023-02-03T02:01:53;101676.88;;;2.52;76.02
46045;BME280;31781;54.094;13.428;2023-02-03T02:03:57;101682.25;;;2.52;76.56
46045;BME280;31781;54.094;13.428;2023-02-03T02:06:03;101688.50;;;2.53;76.86
46045;BME280;31781;54.094;13.428;2023-02-03T02:08:06;101683.97;;;2.53;76.53
46045;BME280;31781;54.094;13.428;2023-02-03T02:10:11;101682.13;;;2.54;76.56
46045;BME280;31781;54.094;13.428;2023-02-03T02:12:13;101662.47;;;2.53;76.90
46045;BME280;31781;54.094;13.428;2023-02-03T02:14:14;101648.06;;;2.54;76.89
46045;BME280;31781;54.094;13.428;2023-02-03T02:16:22;101648.94;;;2.55;76.71
46045;BME280;31781;54.094;13.428;2023-02-03T02:18:37;101649.75;;;2.55;77.29
46045;BME280;31781;54.094;13.428;2023-02-03T02:21:05;101629.00;;;2.57;76.28
46045;BME280;31781;54.094;13.428;2023-02-03T02:23:35;101626.31;;;2.57;77.01
46045;BME280;31781;54.094;13.428;2023-02-03T02:26:00;101620.94;;;2.57;76.70
46045;BME280;31781;54.094;13.428;2023-02-03T02:28:23;101619.22;;;2.56;77.52
46045;BME280;31781;54.094;13.428;2023-02-03T02:30:49;101611.16;;;2.56;77.27
46045;BME280;31781;54.094;13.428;2023-02-03T02:33:09;101597.03;;;2.54;77.83
46045;BME280;31781;54.094;13.428;2023-02-03T02:35:18;101594.34;;;2.54;77.61
46045;BME280;31781;54.094;13.428;2023-02-03T02:37:25;101587.38;;;2.52;78.20
46045;BME280;31781;54.094;13.428;2023-02-03T02:39:43;101574.69;;;2.54;78.42
46045;BME280;31781;54.094;13.428;2023-02-03T02:41:51;101559.44;;;2.54;78.53
46045;BME280;31781;54.094;13.428;2023-02-03T02:43:59;101559.44;;;2.54;78.34
46045;BME280;31781;54.094;13.428;2023-02-03T02:46:09;101546.84;;;2.55;77.58
46045;BME280;31781;54.094;13.428;2023-02-03T02:48:18;101548.53;;;2.56;78.43
46045;BME280;31781;54.094;13.428;2023-02-03T02:50:23;101524.34;;;2.56;77.72
46045;BME280;31781;54.094;13.428;2023-02-03T02:52:30;101520.00;;;2.55;78.18
46045;BME280;31781;54.094;13.428;2023-02-03T02:54:36;101509.94;;;2.57;77.99
46045;BME280;31781;54.094;13.428;2023-02-03T02:56:40;101503.59;;;2.58;77.80
46045;BME280;31781;54.094;13.428;2023-02-03T02:58:46;101497.34;;;2.57;78.18
46045;BME280;31781;54.094;13.428;2023-02-03T03:00:49;101502.59;;;2.59;77.51
46045;BME280;31781;54.094;13.428;2023-02-03T03:02:50;101490.16;;;2.58;78.26
46045;BME280;31781;54.094;13.428;2023-02-03T03:04:54;101481.13;;;2.59;78.11
46045;BME280;31781;54.094;13.428;2023-02-03T03:06:58;101469.50;;;2.58;77.98
46045;BME280;31781;54.094;13.428;2023-02-03T03:09:05;101465.97;;;2.58;77.63
46045;BME280;31781;54.094;13.428;2023-02-03T03:11:09;101459.75;;;2.57;78.14
46045;BME280;31781;54.094;13.428;2023-02-03T03:13:14;101450.84;;;2.57;77.76
46045;BME280;31781;54.094;13.428;2023-02-03T03:15:20;101445.47;;;2.57;77.69
46045;BME280;31781;54.094;13.428;2023-02-03T03:17:26;101442.09;;;2.55;77.89
46045;BME280;31781;54.094;13.428;2023-02-03T03:19:32;101438.84;;;2.51;78.50
46045;BME280;31781;54.094;13.428;2023-02-03T03:21:40;101428.91;;;2.52;77.80
46045;BME280;31781;54.094;13.428;2023-02-03T03:23:46;101413.94;;;2.49;77.97
46045;BME280;31781;54.094;13.428;2023-02-03T03:25:53;101406.84;;;2.48;78.29
46045;BME280;31781;54.094;13.428;2023-02-03T03:27:59;101401.66;;;2.47;77.63
46045;BME280;31781;54.094;13.428;2023-02-03T03:30:05;101386.50;;;2.45;78.53
46045;BME280;31781;54.094;13.428;2023-02-03T03:32:10;101383.97;;;2.44;78.52
46045;BME280;31781;54.094;13.428;2023-02-03T03:34:12;101368.00;;;2.42;78.50
46045;BME280;31781;54.094;13.428;2023-02-03T03:36:23;101362.63;;;2.42;78.40
46045;BME280;31781;54.094;13.428;2023-02-03T03:38:31;101361.78;;;2.42;78.12
46045;BME280;31781;54.094;13.428;2023-02-03T03:40:37;101358.25;;;2.41;78.73
46045;BME280;31781;54.094;13.428;2023-02-03T03:42:44;101351.03;;;2.42;78.45
46045;BME280;31781;54.094;13.428;2023-02-03T03:44:51;101349.34;;;2.41;78.33
46045;BME280;31781;54.094;13.428;2023-02-03T03:47:03;101339.44;;;2.41;78.32
46045;BME280;31781;54.094;13.428;2023-02-03T03:49:09;101321.78;;;2.39;78.85
46045;BME280;31781;54.094;13.428;2023-02-03T03:51:15;101314.72;;;2.38;79.41
46045;BME280;31781;54.094;13.428;2023-02-03T03:53:20;101313.56;;;2.40;79.64
46045;BME280;31781;54.094;13.428;2023-02-03T03:55:26;101303.84;;;2.39;79.09
46045;BME280;31781;54.094;13.428;2023-02-03T03:57:34;101305.50;;;2.40;79.35
46045;BME280;31781;54.094;13.428;2023-02-03T03:59:40;101296.47;;;2.41;79.98
46045;BME280;31781;54.094;13.428;2023-02-03T04:01:56;101290.25;;;2.41;80.33
46045;BME280;31781;54.094;13.428;2023-02-03T04:04:01;101274.00;;;2.42;79.69
46045;BME280;31781;54.094;13.428;2023-02-03T04:06:04;101268.47;;;2.44;79.53
46045;BME280;31781;54.094;13.428;2023-02-03T04:08:06;101274.69;;;2.44;80.05
46045;BME280;31781;54.094;13.428;2023-02-03T04:10:15;101254.91;;;2.45;80.15
46045;BME280;31781;54.094;13.428;2023-02-03T04:12:22;101254.91;;;2.45;79.77
46045;BME280;31781;54.094;13.428;2023-02-03T04:14:24;101234.16;;;2.48;80.01
46045;BME280;31781;54.094;13.428;2023-02-03T04:16:26;101239.78;;;2.44;80.94
46045;BME280;31781;54.094;13.428;2023-02-03T04:18:28;101228.19;;;2.44;80.39
46045;BME280;31781;54.094;13.428;2023-02-03T04:20:33;101221.72;;;2.47;80.41
46045;BME280;31781;54.094;13.428;2023-02-03T04:22:34;101219.72;;;2.49;79.87
46045;BME280;31781;54.094;13.428;2023-02-03T04:24:36;101224.38;;;2.47;80.73
46045;BME280;31781;54.094;13.428;2023-02-03T04:26:38;101207.97;;;2.50;80.87
46045;BME280;31781;54.094;13.428;2023-02-03T04:28:42;101197.91;;;2.52;81.19
46045;BME280;31781;54.094;13.428;2023-02-03T04:30:44;101194.41;;;2.51;80.65
46045;BME280;31781;54.094;13.428;2023-02-03T04:32:46;101181.69;;;2.53;80.47
46045;BME280;31781;54.094;13.428;2023-02-03T04:34:48;101187.03;;;2.53;80.30
46045;BME280;31781;54.094;13.428;2023-02-03T04:36:50;101185.03;;;2.55;80.47
46045;BME280;31781;54.094;13.428;2023-02-03T04:38:52;101181.38;;;2.56;80.11
46045;BME280;31781;54.094;13.428;2023-02-03T04:40:55;101168.78;;;2.57;80.31
46045;BME280;31781;54.094;13.428;2023-02-03T04:42:56;101170.31;;;2.59;80.70
46045;BME280;31781;54.094;13.428;2023-02-03T04:45:01;101157.75;;;2.60;80.48
46045;BME280;31781;54.094;13.428;2023-02-03T04:47:02;101148.72;;;2.61;81.06
46045;BME280;31781;54.094;13.428;2023-02-03T04:49:06;101154.94;;;2.61;81.25
46045;BME280;31781;54.094;13.428;2023-02-03T04:51:08;101144.03;;;2.63;81.63
46045;BME280;31781;54.094;13.428;2023-02-03T04:53:09;101137.66;;;2.64;81.36
46045;BME280;31781;54.094;13.428;2023-02-03T04:55:11;101128.44;;;2.66;80.80
46045;BME280;31781;54.094;13.428;2023-02-03T04:57:13;101117.56;;;2.68;81.06
46045;BME280;31781;54.094;13.428;2023-02-03T04:59:15;101105.84;;;2.69;81.59
46045;BME280;31781;54.094;13.428;2023-02-03T05:01:18;101103.81;;;2.71;81.05
46045;BME280;31781;54.094;13.428;2023-02-03T05:03:20;101091.09;;;2.73;80.81
46045;BME280;31781;54.094;13.428;2023-02-03T05:05:26;101079.34;;;2.74;81.11
46045;BME280;31781;54.094;13.428;2023-02-03T05:07:27;101076.66;;;2.74;81.72
46045;BME280;31781;54.094;13.428;2023-02-03T05:09:31;101063.75;;;2.77;81.60
46045;BME280;31781;54.094;13.428;2023-02-03T05:11:32;101046.66;;;2.78;81.11
46045;BME280;31781;54.094;13.428;2023-02-03T05:13:35;101056.25;;;2.81;80.94
46045;BME280;31781;54.094;13.428;2023-02-03T05:15:37;101047.06;;;2.83;82.00
46045;BME280;31781;54.094;13.428;2023-02-03T05:17:40;101048.75;;;2.84;81.61
46045;BME280;31781;54.094;13.428;2023-02-03T05:19:42;101044.06;;;2.86;82.47
46045;BME280;31781;54.094;13.428;2023-02-03T05:21:43;101024.09;;;2.89;82.38
46045;BME280;31781;54.094;13.428;2023-02-03T05:23:46;101020.28;;;2.91;82.78
46045;BME280;31781;54.094;13.428;2023-02-03T05:25:47;101017.28;;;2.94;82.51
46045;BME280;31781;54.094;13.428;2023-02-03T05:27:49;101011.72;;;2.96;82.99
46045;BME280;31781;54.094;13.428;2023-02-03T05:29:51;101002.34;;;3.00;83.07
46045;BME280;31781;54.094;13.428;2023-02-03T05:31:53;100994.16;;;3.02;83.43
46045;BME280;31781;54.094;13.428;2023-02-03T05:33:56;100986.63;;;3.05;84.01
46045;BME280;31781;54.094;13.428;2023-02-03T05:35:58;100982.78;;;3.08;83.50
46045;BME280;31781;54.094;13.428;2023-02-03T05:38:01;100974.41;;;3.11;83.75
46045;BME280;31781;54.094;13.428;2023-02-03T05:40:03;100978.47;;;3.15;83.76
46045;BME280;31781;54.094;13.428;2023-02-03T05:42:05;100974.47;;;3.19;83.48
46045;BME280;31781;54.094;13.428;2023-02-03T05:44:07;100966.25;;;3.20;83.96
46045;BME280;31781;54.094;13.428;2023-02-03T05:46:09;100958.53;;;3.25;84.70
46045;BME280;31781;54.094;13.428;2023-02-03T05:48:11;100945.47;;;3.30;84.84
46045;BME280;31781;54.094;13.428;2023-02-03T05:50:14;100941.63;;;3.33;85.17
46045;BME280;31781;54.094;13.428;2023-02-03T05:52:16;100939.31;;;3.38;84.46
46045;BME280;31781;54.094;13.428;2023-02-03T05:54:18;100940.69;;;3.42;85.78
46045;BME280;31781;54.094;13.428;2023-02-03T05:56:19;100930.31;;;3.47;85.88
46045;BME280;31781;54.094;13.428;2023-02-03T05:58:21;100931.66;;;3.51;86.75
46045;BME280;31781;54.094;13.428;2023-02-03T06:00:23;100929.34;;;3.56;87.11
46045;BME280;31781;54.094;13.428;2023-02-03T06:02:25;100920.63;;;3.62;87.04
46045;BME280;31781;54.094;13.428;2023-02-03T06:04:29;100915.63;;;3.67;86.70
46045;BME280;31781;54.094;13.428;2023-02-03T06:06:32;100913.31;;;3.72;86.60
46045;BME280;31781;54.094;13.428;2023-02-03T06:08:34;100905.56;;;3.77;87.72
46045;BME280;31781;54.094;13.428;2023-02-03T06:10:35;100885.41;;;3.81;86.53
46045;BME280;31781;54.094;13.428;2023-02-03T06:12:37;100885.78;;;3.86;87.02
46045;BME280;31781;54.094;13.428;2023-02-03T06:14:38;100873.69;;;3.90;87.09
46045;BME280;31781;54.094;13.428;2023-02-03T06:16:40;100866.97;;;3.95;87.58
46045;BME280;31781;54.094;13.428;2023-02-03T06:18:42;100868.16;;;4.00;87.51
46045;BME280;31781;54.094;13.428;2023-02-03T06:20:44;100848.81;;;4.05;87.37
46045;BME280;31781;54.094;13.428;2023-02-03T06:22:47;100847.47;;;4.09;87.38
46045;BME280;31781;54.094;13.428;2023-02-03T06:24:49;100846.16;;;4.13;86.52
46045;BME280;31781;54.094;13.428;2023-02-03T06:26:51;100839.25;;;4.18;87.95
46045;BME280;31781;54.094;13.428;2023-02-03T06:28:52;100825.28;;;4.23;87.13
46045;BME280;31781;54.094;13.428;2023-02-03T06:30:54;100824.78;;;4.27;88.62
46045;BME280;31781;54.094;13.428;2023-02-03T06:32:56;100821.59;;;4.32;87.42
46045;BME280;31781;54.094;13.428;2023-02-03T06:34:58;100813.84;;;4.37;87.28
46045;BME280;31781;54.094;13.428;2023-02-03T06:36:59;100812.50;;;4.41;88.32
46045;BME280;31781;54.094;13.428;2023-02-03T06:39:03;100812.00;;;4.46;88.22
46045;BME280;31781;54.094;13.428;2023-02-03T06:41:04;100813.16;;;4.51;88.11
46045;BME280;31781;54.094;13.428;2023-02-03T06:43:06;100798.34;;;4.55;89.12
46045;BME280;31781;54.094;13.428;2023-02-03T06:45:09;100792.47;;;4.60;89.59
46045;BME280;31781;54.094;13.428;2023-02-03T06:47:10;100788.28;;;4.65;89.72
46045;BME280;31781;54.094;13.428;2023-02-03T06:49:12;100784.19;;;4.69;89.63
46045;BME280;31781;54.094;13.428;2023-02-03T06:51:14;100783.53;;;4.75;90.23
46045;BME280;31781;54.094;13.428;2023-02-03T06:53:16;100782.00;;;4.81;90.49
46045;BME280;31781;54.094;13.428;2023-02-03T06:55:19;100772.56;;;4.85;90.07
46045;BME280;31781;54.094;13.428;2023-02-03T06:57:21;100768.34;;;4.90;90.34
46045;BME280;31781;54.094;13.428;2023-02-03T06:59:22;100764.31;;;4.95;89.54
46045;BME280;31781;54.094;13.428;2023-02-03T07:01:24;100760.06;;;5.00;89.85
46045;BME280;31781;54.094;13.428;2023-02-03T07:03:26;100754.16;;;5.05;90.47
46045;BME280;31781;54.094;13.428;2023-02-03T07:05:28;100750.09;;;5.09;90.49
46045;BME280;31781;54.094;13.428;2023-02-03T07:07:29;100749.38;;;5.15;90.34
46045;BME280;31781;54.094;13.428;2023-02-03T07:09:31;100740.78;;;5.19;90.98
46045;BME280;31781;54.094;13.428;2023-02-03T07:11:34;100739.22;;;5.25;91.44
46045;BME280;31781;54.094;13.428;2023-02-03T07:13:36;100726.06;;;5.30;90.65
46045;BME280;31781;54.094;13.428;2023-02-03T07:15:37;100725.53;;;5.34;90.13
46045;BME280;31781;54.094;13.428;2023-02-03T07:17:39;100728.53;;;5.39;90.78
46045;BME280;31781;54.094;13.428;2023-02-03T07:19:41;100718.06;;;5.45;91.81
46045;BME280;31781;54.094;13.428;2023-02-03T07:21:46;100713.00;;;5.50;91.75
46045;BME280;31781;54.094;13.428;2023-02-03T07:23:48;100713.28;;;5.55;91.50
46045;BME280;31781;54.094;13.428;2023-02-03T07:25:50;100709.06;;;5.60;91.35
46045;BME280;31781;54.094;13.428;2023-02-03T07:27:53;100697.53;;;5.66;92.09
46045;BME280;31781;54.094;13.428;2023-02-03T07:29:55;100697.84;;;5.71;91.89
46045;BME280;31781;54.094;13.428;2023-02-03T07:31:56;100687.38;;;5.76;92.72
46045;BME280;31781;54.094;13.428;2023-02-03T07:33:58;100683.09;;;5.82;92.53
46045;BME280;31781;54.094;13.428;2023-02-03T07:36:00;100673.44;;;5.87;92.17
46045;BME280;31781;54.094;13.428;2023-02-03T07:38:02;100681.00;;;5.92;92.62
46045;BME280;31781;54.094;13.428;2023-02-03T07:40:05;100665.97;;;5.98;92.63
46045;BME280;31781;54.094;13.428;2023-02-03T07:42:06;100670.81;;;6.02;92.00
46045;BME280;31781;54.094;13.428;2023-02-03T07:44:09;100673.81;;;6.07;91.98
46045;BME280;31781;54.094;13.428;2023-02-03T07:46:11;100655.38;;;6.11;92.49
46045;BME280;31781;54.094;13.428;2023-02-03T07:48:13;100649.44;;;6.15;92.31
46045;BME280;31781;54.094;13.428;2023-02-03T07:50:15;100648.03;;;6.19;92.32
46045;BME280;31781;54.094;13.428;2023-02-03T07:52:16;100652.06;;;6.23;92.36
46045;BME280;31781;54.094;13.428;2023-02-03T07:54:19;100646.94;;;6.28;92.39
46045;BME280;31781;54.094;13.428;2023-02-03T07:56:21;100631.19;;;6.32;92.84
46045;BME280;31781;54.094;13.428;2023-02-03T07:58:23;100627.09;;;6.36;92.93
46045;BME280;31781;54.094;13.428;2023-02-03T08:00:26;100621.34;;;6.39;92.56
46045;BME280;31781;54.094;13.428;2023-02-03T08:02:28;100616.41;;;6.43;92.95
46045;BME280;31781;54.094;13.428;2023-02-03T08:04:30;100616.88;;;6.46;92.80
46045;BME280;31781;54.094;13.428;2023-02-03T08:06:31;100617.34;;;6.50;93.03
46045;BME280;31781;54.094;13.428;2023-02-03T08:08:33;100593.66;;;6.52;93.49
46045;BME280;31781;54.094;13.428;2023-02-03T08:10:35;100603.06;;;6.56;93.73
46045;BME280;31781;54.094;13.428;2023-02-03T08:12:36;100604.38;;;6.60;93.35
46045;BME280;31781;54.094;13.428;2023-02-03T08:14:38;100599.44;;;6.63;93.81
46045;BME280;31781;54.094;13.428;2023-02-03T08:16:41;100590.94;;;6.66;93.43
46045;BME280;31781;54.094;13.428;2023-02-03T08:18:43;100596.81;;;6.70;93.50
46045;BME280;31781;54.094;13.428;2023-02-03T08:20:45;100592.91;;;6.72;93.19
46045;BME280;31781;54.094;13.428;2023-02-03T08:22:47;100579.84;;;6.76;93.22
46045;BME280;31781;54.094;13.428;2023-02-03T08:24:49;100587.59;;;6.79;92.60
46045;BME280;31781;54.094;13.428;2023-02-03T08:26:50;100576.38;;;6.82;93.05
46045;BME280;31781;54.094;13.428;2023-02-03T08:28:52;100572.47;;;6.84;92.69
46045;BME280;31781;54.094;13.428;2023-02-03T08:30:54;100577.47;;;6.88;92.23
46045;BME280;31781;54.094;13.428;2023-02-03T08:32:58;100579.00;;;6.90;92.94
46045;BME280;31781;54.094;13.428;2023-02-03T08:35:00;100584.19;;;6.92;93.08
46045;BME280;31781;54.094;13.428;2023-02-03T08:37:01;100576.53;;;6.95;92.53
46045;BME280;31781;54.094;13.428;2023-02-03T08:39:03;100577.22;;;6.97;92.07
46045;BME280;31781;54.094;13.428;2023-02-03T08:41:09;100571.59;;;6.99;92.81
46045;BME280;31781;54.094;13.428;2023-02-03T08:43:10;100559.56;;;7.01;92.63
46045;BME280;31781;54.094;13.428;2023-02-03T08:45:12;100566.47;;;7.04;92.67
46045;BME280;31781;54.094;13.428;2023-02-03T08:47:14;100566.06;;;7.07;92.30
46045;BME280;31781;54.094;13.428;2023-02-03T08:49:18;100556.94;;;7.08;92.66
46045;BME280;31781;54.094;13.428;2023-02-03T08:51:20;100553.84;;;7.11;92.35
46045;BME280;31781;54.094;13.428;2023-02-03T08:53:21;100559.91;;;7.13;92.45
46045;BME280;31781;54.094;13.428;2023-02-03T08:55:23;100561.38;;;7.15;91.96
46045;BME280;31781;54.094;13.428;2023-02-03T08:57:25;100549.53;;;7.16;91.80
46045;BME280;31781;54.094;13.428;2023-02-03T08:59:26;100547.28;;;7.20;91.78
46045;BME280;31781;54.094;13.428;2023-02-03T09:01:28;100561.66;;;7.20;91.57
46045;BME280;31781;54.094;13.428;2023-02-03T09:03:30;100561.28;;;7.23;91.62
46045;BME280;31781;54.094;13.428;2023-02-03T09:05:33;100564.63;;;7.25;91.69
46045;BME280;31781;54.094;13.428;2023-02-03T09:07:35;100572.56;;;7.27;91.73
46045;BME280;31781;54.094;13.428;2023-02-03T09:09:36;100566.75;;;7.30;91.90
46045;BME280;31781;54.094;13.428;2023-02-03T09:11:39;100571.16;;;7.31;91.62
46045;BME280;31781;54.094;13.428;2023-02-03T09:13:42;100595.28;;;7.32;91.93
46045;BME280;31781;54.094;13.428;2023-02-03T09:15:44;100615.06;;;7.33;91.31
46045;BME280;31781;54.094;13.428;2023-02-03T09:17:45;100623.03;;;7.34;91.15
46045;BME280;31781;54.094;13.428;2023-02-03T09:19:47;100630.94;;;7.36;90.62
46045;BME280;31781;54.094;13.428;2023-02-03T09:21:50;100639.66;;;7.31;88.65
46045;BME280;31781;54.094;13.428;2023-02-03T09:23:52;100634.88;;;7.33;86.24
46045;BME280;31781;54.094;13.428;2023-02-03T09:25:54;100642.53;;;7.30;85.05
46045;BME280;31781;54.094;13.428;2023-02-03T09:27:55;100631.53;;;7.31;83.22
46045;BME280;31781;54.094;13.428;2023-02-03T09:29:57;100625.44;;;7.29;82.00
46045;BME280;31781;54.094;13.428;2023-02-03T09:31:58;100606.88;;;7.26;82.30
46045;BME280;31781;54.094;13.428;2023-02-03T09:34:00;100611.06;;;7.29;82.44
46045;BME280;31781;54.094;13.428;2023-02-03T09:36:03;100609.38;;;7.28;82.67
46045;BME280;31781;54.094;13.428;2023-02-03T09:38:07;100602.31;;;7.27;82.53
46045;BME280;31781;54.094;13.428;2023-02-03T09:40:17;100603.97;;;7.28;83.24
46045;BME280;31781;54.094;13.428;2023-02-03T09:42:33;100606.06;;;7.26;82.60
46045;BME280;31781;54.094;13.428;2023-02-03T09:44:43;100614.56;;;7.23;82.26
46045;BME280;31781;54.094;13.428;2023-02-03T09:46:50;100633.50;;;7.23;82.20
46045;BME280;31781;54.094;13.428;2023-02-03T09:48:57;100626.41;;;7.22;81.67
46045;BME280;31781;54.094;13.428;2023-02-03T09:51:00;100646.34;;;7.21;81.38
46045;BME280;31781;54.094;13.428;2023-02-03T09:53:05;100641.78;;;7.21;81.12
46045;BME280;31781;54.094;13.428;2023-02-03T09:55:23;100633.94;;;7.26;81.53
46045;BME280;31781;54.094;13.428;2023-02-03T09:57:28;100647.28;;;7.28;80.99
46045;BME280;31781;54.094;13.428;2023-02-03T09:59:31;100641.22;;;7.26;81.24
46045;BME280;31781;54.094;13.428;2023-02-03T10:01:40;100630.84;;;7.29;81.46
46045;BME280;31781;54.094;13.428;2023-02-03T10:03:50;100644.38;;;7.29;81.76
46045;BME280;31781;54.094;13.428;2023-02-03T10:06:11;100639.66;;;7.31;81.99
46045;BME280;31781;54.094;13.428;2023-02-03T10:08:21;100642.34;;;7.31;81.69
46045;BME280;31781;54.094;13.428;2023-02-03T10:10:37;100642.97;;;7.33;82.04
46045;BME280;31781;54.094;13.428;2023-02-03T10:12:52;100635.31;;;7.37;82.55
46045;BME280;31781;54.094;13.428;2023-02-03T10:15:11;100625.78;;;7.41;82.25
46045;BME280;31781;54.094;13.428;2023-02-03T10:17:26;100623.34;;;7.46;81.86
46045;BME280;31781;54.094;13.428;2023-02-03T10:19:36;100638.75;;;7.46;81.11
46045;BME280;31781;54.094;13.428;2023-02-03T10:21:41;100635.84;;;7.47;80.63
46045;BME280;31781;54.094;13.428;2023-02-03T10:23:47;100630.13;;;7.57;79.87
46045;BME280;31781;54.094;13.428;2023-02-03T10:25:53;100628.22;;;7.72;79.53
46045;BME280;31781;54.094;13.428;2023-02-03T10:28:01;100615.63;;;7.86;78.76
46045;BME280;31781;54.094;13.428;2023-02-03T10:30:15;100606.75;;;7.98;78.16
46045;BME280;31781;54.094;13.428;2023-02-03T10:32:18;100637.94;;;8.09;77.18
46045;BME280;31781;54.094;13.428;2023-02-03T10:34:20;100637.31;;;8.13;77.16
46045;BME280;31781;54.094;13.428;2023-02-03T10:36:22;100630.03;;;8.14;76.03
46045;BME280;31781;54.094;13.428;2023-02-03T10:38:42;100642.38;;;8.16;75.43
46045;BME280;31781;54.094;13.428;2023-02-03T10:40:49;100638.81;;;8.16;74.78
46045;BME280;31781;54.094;13.428;2023-02-03T10:42:52;100633.19;;;8.17;74.45
46045;BME280;31781;54.094;13.428;2023-02-03T10:44:56;100644.63;;;8.13;73.39
46045;BME280;31781;54.094;13.428;2023-02-03T10:46:58;100643.41;;;8.15;74.23
46045;BME280;31781;54.094;13.428;2023-02-03T10:49:00;100664.22;;;8.15;73.67